Irbejskoe, Russia
Current Conditions -  °F | °C
As of 6:00 PM on Thursday 18 Dec 2014 (Local Time) from UNKL Reporting Station
Overcast Overcast  
Wind Chill:   Ceiling: 8300
Heat Index: 18°   Visibility: 6mi
Dew Point: 10°   Wind: 7mph
Humidity: 73%   Direction: 220°SW
Pressure: 30.53"   Gusts: NA
Location:  55.63°N, 95.47°E
Report Text: UNKL 181100Z 22003MPS 9999 SCT026CB OVC083 M08/M12 Q1034 NOSIGRMK QFE749 29////50
Loading
Personal Weather Stations






























Interactive Weather Map New forecast layout! Learn more

10-Day Weather Forecast

Advertisements
Track Severe Weather on mobile